Time;durP1;ratioP1;P1;durP2;ratioP2;P2;SDS_P1;SDS_P2;PMS_P1;PMS_P2;Temp;Humidity;BMP_temperature;BMP_pressure;BME280_temperature;BME280_humidity;BME280_pressure;Samples;Min_cycle;Max_cycle;Signal;HPM_P1;HPM_P2
2022/05/24 00:01:38;;;;;;;2.40;2.00;;;;;;;10.01;68.50;96017.23;107316;1274;51163;-73
2022/05/24 00:04:11;;;;;;;5.10;2.50;;;;;;;10.02;68.58;96014.79;107249;1274;79314;-73
2022/05/24 00:06:42;;;;;;;3.50;2.40;;;;;;;10.07;68.72;96009.23;107303;1274;55368;-73
2022/05/24 00:09:13;;;;;;;5.50;2.60;;;;;;;10.11;68.71;96013.62;107250;1276;34484;-74
2022/05/24 00:11:44;;;;;;;3.00;2.50;;;;;;;10.12;68.62;96011.42;107368;1274;31876;-73
2022/05/24 00:14:14;;;;;;;3.80;2.60;;;;;;;10.18;68.65;96007.32;107298;1274;45839;-73
2022/05/24 00:16:45;;;;;;;3.30;2.50;;;;;;;10.26;68.45;96001.59;107329;1274;35133;-73
2022/05/24 00:19:16;;;;;;;3.60;2.30;;;;;;;10.32;68.50;96003.67;107300;1274;51310;-73
2022/05/24 00:21:47;;;;;;;3.00;2.20;;;;;;;10.30;68.49;96011.78;107282;1274;47900;-73
2022/05/24 00:24:18;;;;;;;4.10;2.50;;;;;;;10.25;68.69;96016.12;107282;1274;57118;-73
2022/05/24 00:26:49;;;;;;;3.30;2.50;;;;;;;10.19;68.83;96012.60;107245;1274;65136;-73
2022/05/24 00:29:20;;;;;;;3.40;2.50;;;;;;;10.10;68.96;96009.40;107319;1276;49509;-73
2022/05/24 00:31:51;;;;;;;4.70;2.70;;;;;;;10.15;69.20;96014.02;107365;1274;45322;-73
2022/05/24 00:34:22;;;;;;;3.90;2.50;;;;;;;10.19;69.22;96014.02;107393;1274;41902;-73
2022/05/24 00:36:53;;;;;;;3.10;2.60;;;;;;;10.22;69.28;96016.45;107418;1274;39057;-73
2022/05/24 00:39:24;;;;;;;3.60;2.20;;;;;;;10.24;69.17;96013.40;107373;1274;61084;-73
2022/05/24 00:42:02;;;;;;;3.00;2.40;;;;;;;10.30;69.17;96013.84;107296;1274;41700;-74
2022/05/24 00:44:38;;;;;;;3.60;2.30;;;;;;;10.37;69.26;96007.88;107273;1274;57139;-73
2022/05/24 00:47:15;;;;;;;2.90;2.20;;;;;;;10.42;69.47;96007.38;107222;1274;57904;-73
2022/05/24 00:49:49;;;;;;;3.50;2.30;;;;;;;10.45;69.23;96009.25;107262;1274;79896;-73
2022/05/24 00:52:31;;;;;;;3.70;2.40;;;;;;;10.46;69.15;96006.84;107317;1274;37771;-73
2022/05/24 00:55:02;;;;;;;4.40;2.70;;;;;;;10.48;69.19;96006.01;107334;1274;31686;-73
2022/05/24 00:57:37;;;;;;;3.40;2.70;;;;;;;10.48;69.05;95999.27;107262;1274;62547;-74
2022/05/24 01:00:11;;;;;;;3.80;2.70;;;;;;;10.49;69.12;96001.31;107300;1273;57219;-73
2022/05/24 01:02:43;;;;;;;3.70;2.60;;;;;;;10.47;69.02;95993.63;107329;1274;39963;-73
2022/05/24 01:05:21;;;;;;;3.00;2.50;;;;;;;10.45;68.96;95988.04;107392;1274;33279;-73
2022/05/24 01:07:52;;;;;;;2.90;2.30;;;;;;;10.40;69.10;95989.36;107355;1274;45751;-73
2022/05/24 01:10:27;;;;;;;3.70;2.80;;;;;;;10.37;69.13;95984.93;107425;1274;33139;-73
2022/05/24 01:13:03;;;;;;;3.10;2.60;;;;;;;10.31;69.23;95982.50;107223;1276;33283;-74
2022/05/24 01:15:34;;;;;;;5.00;3.00;;;;;;;10.26;69.40;95977.19;107240;1274;65456;-73
2022/05/24 01:18:07;;;;;;;3.00;2.30;;;;;;;10.19;69.51;95976.48;107291;1274;64765;-73
2022/05/24 01:20:39;;;;;;;4.50;2.90;;;;;;;10.14;69.68;95977.09;107294;1274;54561;-74
2022/05/24 01:23:26;;;;;;;5.30;2.70;;;;;;;10.12;70.00;95971.91;107310;1274;35927;-74
2022/05/24 01:26:04;;;;;;;2.70;2.40;;;;;;;10.16;70.17;95970.70;107312;1273;49547;-74
2022/05/24 01:28:39;;;;;;;4.40;2.80;;;;;;;10.20;70.07;95973.40;107276;1274;61876;-74
2022/05/24 01:31:11;;;;;;;3.10;2.50;;;;;;;10.17;70.30;95974.08;107324;1274;33759;-74
2022/05/24 01:36:34;;;;;;;3.50;2.30;;;;;;;10.21;70.44;95971.21;107261;1274;76440;-74
2022/05/24 01:39:11;;;;;;;3.40;2.40;;;;;;;10.29;70.47;95968.54;107293;1274;62006;-74
2022/05/24 01:41:46;;;;;;;3.10;2.60;;;;;;;10.36;70.45;95972.92;107148;1276;70071;-73
2022/05/24 01:44:23;;;;;;;2.80;2.40;;;;;;;10.24;70.73;95971.17;107337;1274;37534;-73
2022/05/24 01:46:55;;;;;;;3.20;2.70;;;;;;;10.07;71.07;95966.55;107249;1274;62754;-74
2022/05/24 01:49:28;;;;;;;3.40;2.40;;;;;;;10.04;71.31;95963.21;107212;1276;69851;-75
2022/05/24 01:52:07;;;;;;;4.20;2.50;;;;;;;10.11;71.47;95962.77;107215;1274;73689;-74
2022/05/24 01:54:45;;;;;;;2.90;2.30;;;;;;;10.20;71.53;95961.69;107251;1274;65824;-73
2022/05/24 01:57:21;;;;;;;3.50;2.40;;;;;;;10.26;71.70;95957.84;107386;1274;33782;-74
2022/05/24 01:59:56;;;;;;;5.40;2.70;;;;;;;10.29;71.58;95958.95;107350;1273;42538;-73
2022/05/24 02:02:29;;;;;;;2.60;2.30;;;;;;;10.33;71.25;95960.48;107284;1274;70969;-74
2022/05/24 02:04:59;;;;;;;3.70;2.70;;;;;;;10.38;71.04;95958.52;107215;1274;68347;-73
2022/05/24 02:07:31;;;;;;;3.10;2.70;;;;;;;10.39;71.03;95962.33;107160;1276;92862;-74
2022/05/24 02:10:02;;;;;;;3.10;2.40;;;;;;;10.36;71.25;95962.95;107321;1274;36935;-74
2022/05/24 02:12:38;;;;;;;4.00;3.10;;;;;;;10.31;71.31;95961.09;107186;1274;81716;-73
2022/05/24 02:15:12;;;;;;;5.10;2.80;;;;;;;10.28;71.23;95962.95;107300;1274;34693;-73
2022/05/24 02:17:48;;;;;;;3.80;2.60;;;;;;;10.27;71.33;95963.86;107267;1274;67006;-73
2022/05/24 02:20:25;;;;;;;4.60;3.10;;;;;;;10.28;71.21;95965.34;107237;1274;47549;-73
2022/05/24 02:22:56;;;;;;;4.10;2.80;;;;;;;10.33;71.08;95962.85;107302;1274;34024;-74
2022/05/24 02:25:34;;;;;;;3.10;2.80;;;;;;;10.39;71.01;95956.98;107290;1273;84201;-73
2022/05/24 02:28:08;;;;;;;4.40;2.80;;;;;;;10.44;70.92;95963.41;107337;1274;28036;-73
2022/05/24 02:30:43;;;;;;;3.40;2.60;;;;;;;10.47;70.95;95959.33;107169;1274;63953;-73
2022/05/24 02:33:15;;;;;;;3.20;2.40;;;;;;;10.51;70.85;95958.55;107339;1275;34611;-73
2022/05/24 02:35:45;;;;;;;3.30;2.70;;;;;;;10.55;70.87;95952.50;107215;1273;60047;-73
2022/05/24 02:38:17;;;;;;;4.30;2.90;;;;;;;10.60;70.64;95957.70;107394;1274;29747;-73
2022/05/24 02:43:37;;;;;;;3.20;2.70;;;;;;;10.76;70.24;95955.09;107237;1274;59701;-73
2022/05/24 02:46:08;;;;;;;2.90;2.40;;;;;;;10.82;70.07;95948.59;107299;1274;32366;-73
2022/05/24 02:48:40;;;;;;;3.40;2.40;;;;;;;10.88;69.97;95946.05;107176;1274;106235;-73
2022/05/24 02:51:13;;;;;;;3.20;2.50;;;;;;;10.94;69.84;95945.33;107279;1276;33041;-73
2022/05/24 02:53:45;;;;;;;3.20;2.60;;;;;;;10.99;69.57;95943.73;107228;1274;59566;-73
2022/05/24 02:56:17;;;;;;;3.90;2.70;;;;;;;11.03;69.49;95945.83;107310;1274;53372;-73
2022/05/24 02:58:49;;;;;;;3.80;3.00;;;;;;;11.06;69.34;95941.46;107269;1274;50648;-73
2022/05/24 03:01:23;;;;;;;3.50;2.60;;;;;;;11.10;69.20;95943.30;107294;1274;39090;-73
2022/05/24 03:03:55;;;;;;;4.00;2.50;;;;;;;11.09;69.09;95941.89;107417;1273;32166;-73
2022/05/24 03:06:27;;;;;;;3.80;2.10;;;;;;;11.09;69.01;95942.35;107194;1274;59507;-74
2022/05/24 03:14:36;;;;;;;3.00;2.60;;;;;;;11.19;68.85;95941.19;107255;1273;40667;-73
2022/05/24 03:17:09;;;;;;;3.10;2.50;;;;;;;11.21;68.63;95945.07;107249;1276;45497;-73
2022/05/24 03:19:40;;;;;;;3.00;2.60;;;;;;;11.20;68.50;95946.22;107229;1274;57045;-73
2022/05/24 03:22:11;;;;;;;4.10;2.60;;;;;;;11.17;68.60;95940.98;107289;1274;31872;-73
2022/05/24 03:24:42;;;;;;;3.20;2.10;;;;;;;11.11;68.54;95938.91;107257;1274;59470;-73
2022/05/24 03:27:13;;;;;;;3.00;2.40;;;;;;;11.10;68.64;95941.11;107224;1274;54268;-73
2022/05/24 03:29:47;;;;;;;2.90;2.50;;;;;;;11.09;68.65;95939.91;107310;1274;29141;-74
2022/05/24 03:32:20;;;;;;;3.50;2.80;;;;;;;11.09;68.65;95940.55;107276;1274;42051;-73
2022/05/24 03:34:51;;;;;;;2.90;2.60;;;;;;;11.13;68.52;95940.54;107372;1273;60159;-73
2022/05/24 03:37:22;;;;;;;3.10;2.50;;;;;;;11.17;68.46;95941.25;107344;1274;39935;-73
2022/05/24 03:39:53;;;;;;;4.70;2.70;;;;;;;11.18;68.37;95944.61;107323;1274;51382;-73
2022/05/24 03:42:24;;;;;;;3.10;2.40;;;;;;;11.17;68.39;95948.09;107321;1274;31251;-73
2022/05/24 03:44:56;;;;;;;3.70;2.50;;;;;;;11.18;68.32;95946.73;107288;1273;60392;-73
2022/05/24 03:47:27;;;;;;;3.80;2.20;;;;;;;11.21;68.37;95947.19;107273;1274;32546;-73
2022/05/24 03:49:58;;;;;;;3.90;2.60;;;;;;;11.25;68.55;95946.94;107235;1274;45901;-73
2022/05/24 03:52:29;;;;;;;5.50;2.50;;;;;;;11.26;68.57;95952.19;107235;1273;66098;-73
2022/05/24 03:55:00;;;;;;;5.30;2.40;;;;;;;11.28;68.64;95952.36;107240;1274;60696;-73
2022/05/24 04:00:32;;;;;;;3.10;2.60;;;;;;;11.43;68.48;95955.92;107214;1274;65785;-73
2022/05/24 04:03:04;;;;;;;4.10;2.80;;;;;;;11.46;68.42;95954.79;107200;1274;85342;-73
2022/05/24 04:05:36;;;;;;;2.50;2.30;;;;;;;11.55;68.41;95952.15;107273;1274;31848;-73
2022/05/24 04:08:08;;;;;;;2.70;2.40;;;;;;;11.63;68.27;95954.67;107156;1274;58607;-73
2022/05/24 04:10:39;;;;;;;3.10;2.20;;;;;;;11.66;68.00;95953.31;107294;1274;45094;-73
2022/05/24 04:13:11;;;;;;;3.20;2.50;;;;;;;11.71;67.76;95955.13;107280;1275;40028;-73
2022/05/24 04:15:41;;;;;;;3.70;2.40;;;;;;;11.81;67.91;95956.88;107264;1274;44228;-73
2022/05/24 04:18:12;;;;;;;4.90;2.90;;;;;;;11.82;67.62;95956.55;107313;1274;32904;-73
2022/05/24 04:20:43;;;;;;;3.00;2.70;;;;;;;11.85;67.78;95958.54;107213;1276;69607;-73
2022/05/24 04:23:17;;;;;;;4.90;2.70;;;;;;;11.87;67.80;95965.55;107278;1273;32838;-73
2022/05/24 04:25:49;;;;;;;5.60;2.60;;;;;;;11.88;67.73;95965.43;107184;1274;70799;-73
2022/05/24 04:28:20;;;;;;;4.20;2.70;;;;;;;11.88;67.68;95959.22;107170;1274;71598;-73
2022/05/24 04:30:53;;;;;;;2.80;2.60;;;;;;;11.92;67.76;95954.52;107364;1274;29661;-73
2022/05/24 04:33:23;;;;;;;5.30;2.70;;;;;;;11.90;67.70;95952.48;107292;1274;61346;-73
2022/05/24 04:35:57;;;;;;;4.20;2.90;;;;;;;11.82;67.67;95947.73;107355;1276;30011;-73
2022/05/24 04:38:28;;;;;;;3.00;2.60;;;;;;;11.74;67.73;95947.30;107271;1274;34174;-74
2022/05/24 04:43:47;;;;;;;3.90;2.50;;;;;;;11.71;68.05;95947.16;107268;1276;32354;-73
2022/05/24 04:46:19;;;;;;;4.10;2.70;;;;;;;11.77;68.10;95950.54;107202;1274;82679;-73
2022/05/24 04:48:50;;;;;;;2.90;1.90;;;;;;;11.84;68.10;95950.13;107294;1274;37225;-73
2022/05/24 04:51:22;;;;;;;2.90;2.70;;;;;;;11.91;67.93;95954.70;107379;1274;34743;-73
2022/05/24 04:53:55;;;;;;;3.00;2.40;;;;;;;11.97;68.05;95950.98;107302;1274;62083;-73
2022/05/24 04:56:26;;;;;;;3.70;2.30;;;;;;;12.04;68.09;95951.78;107318;1274;68855;-73
2022/05/24 04:58:57;;;;;;;4.40;2.70;;;;;;;12.10;67.98;95957.41;107293;1274;42478;-74
2022/05/24 05:01:28;;;;;;;3.00;2.40;;;;;;;12.17;67.91;95954.30;107247;1273;47904;-74
2022/05/24 05:03:59;;;;;;;3.50;2.50;;;;;;;12.21;67.67;95953.47;107238;1274;62802;-73
2022/05/24 05:06:32;;;;;;;3.60;2.40;;;;;;;12.27;67.62;95956.30;107329;1274;57334;-73
2022/05/24 05:09:04;;;;;;;3.90;2.70;;;;;;;12.36;67.49;95958.29;107387;1274;28660;-74
2022/05/24 05:11:34;;;;;;;4.60;2.60;;;;;;;12.50;67.70;95961.14;107228;1273;79212;-73
2022/05/24 05:14:06;;;;;;;4.30;2.70;;;;;;;12.54;67.48;95965.30;107293;1274;39102;-73
2022/05/24 05:16:38;;;;;;;3.10;2.50;;;;;;;12.56;67.49;95963.24;107197;1273;48376;-74
2022/05/24 05:19:12;;;;;;;3.50;2.60;;;;;;;12.57;67.42;95965.73;107227;1274;60654;-73
2022/05/24 05:21:43;;;;;;;2.90;2.60;;;;;;;12.66;67.64;95971.41;107162;1274;85110;-73
2022/05/24 05:24:14;;;;;;;5.40;2.80;;;;;;;12.86;67.64;95974.58;107284;1274;45619;-73
2022/05/24 05:26:45;;;;;;;2.70;2.40;;;;;;;13.05;67.34;95973.42;107258;1274;31747;-73
2022/05/24 05:31:16;;;;;;;3.50;2.40;;;;;;;13.20;67.24;95968.77;107183;1274;93550;-73
2022/05/24 05:32:08;;;;;;;2.80;2.30;;;;;;;13.48;67.16;95965.71;107232;1274;57585;-73
2022/05/24 05:34:41;;;;;;;3.10;2.50;;;;;;;13.72;67.09;95965.63;107194;1274;107365;-73
2022/05/24 05:37:12;;;;;;;3.70;2.80;;;;;;;13.85;66.14;95968.60;107209;1276;64101;-74
2022/05/24 05:39:43;;;;;;;4.30;2.70;;;;;;;13.87;65.78;95965.27;107241;1274;45723;-73
2022/05/24 05:42:14;;;;;;;3.70;3.00;;;;;;;13.88;65.69;95967.44;107236;1274;71881;-73
2022/05/24 05:44:46;;;;;;;3.40;2.80;;;;;;;13.83;65.69;95971.90;107269;1273;44920;-73
2022/05/24 05:47:18;;;;;;;4.20;3.20;;;;;;;13.84;65.88;95970.40;107174;1274;81190;-74
2022/05/24 05:49:49;;;;;;;3.40;2.50;;;;;;;13.84;65.65;95967.75;107271;1274;35081;-73
2022/05/24 05:52:21;;;;;;;5.30;2.50;;;;;;;13.88;65.37;95967.74;107248;1273;41390;-74
2022/05/24 05:54:52;;;;;;;3.50;2.60;;;;;;;13.91;65.08;95971.63;107319;1274;38484;-73
2022/05/24 05:57:23;;;;;;;4.70;2.50;;;;;;;13.94;64.90;95970.08;107201;1274;79217;-73
2022/05/24 05:59:58;;;;;;;2.90;2.60;;;;;;;14.01;64.88;95971.03;107338;1273;49538;-74
2022/05/24 06:02:29;;;;;;;4.80;2.10;;;;;;;14.00;64.79;95972.23;107154;1274;87910;-74
2022/05/24 06:05:00;;;;;;;3.30;2.30;;;;;;;14.04;64.97;95974.69;107183;1273;77316;-73
2022/05/24 06:07:31;;;;;;;2.70;2.50;;;;;;;14.12;64.68;95975.20;107266;1274;32211;-74
2022/05/24 06:10:03;;;;;;;2.70;2.40;;;;;;;14.19;64.39;95980.60;107253;1274;69126;-74
2022/05/24 06:12:34;;;;;;;3.30;2.50;;;;;;;14.22;64.31;95973.64;107298;1273;34443;-74
2022/05/24 06:15:07;;;;;;;2.80;2.30;;;;;;;14.23;64.19;95976.16;107238;1276;37421;-73
2022/05/24 06:17:45;;;;;;;6.40;2.40;;;;;;;14.21;63.91;95971.46;107305;1273;33043;-74
2022/05/24 06:20:16;;;;;;;2.40;2.10;;;;;;;14.20;64.07;95975.83;107371;1274;61853;-73
2022/05/24 06:22:49;;;;;;;3.10;2.10;;;;;;;14.18;64.24;95978.12;107114;1274;118868;-73
2022/05/24 06:25:21;;;;;;;2.60;2.30;;;;;;;14.19;64.58;95979.66;107257;1274;54965;-73
2022/05/24 06:27:53;;;;;;;3.50;2.40;;;;;;;14.23;64.32;95974.84;107292;1274;46831;-73
2022/05/24 06:30:25;;;;;;;4.90;2.70;;;;;;;14.24;64.07;95978.16;107355;1274;31176;-74
2022/05/24 06:32:57;;;;;;;4.10;2.30;;;;;;;14.23;64.26;95980.42;107267;1274;93414;-73
2022/05/24 06:35:30;;;;;;;2.40;2.20;;;;;;;14.23;64.20;95986.58;107210;1273;69618;-73
2022/05/24 06:38:02;;;;;;;2.20;1.80;;;;;;;14.24;64.52;95989.86;107235;1274;45968;-73
2022/05/24 06:40:33;;;;;;;5.40;2.80;;;;;;;14.25;64.44;95989.64;107193;1274;60838;-73
2022/05/24 06:43:05;;;;;;;2.60;2.00;;;;;;;14.29;64.73;95993.58;107234;1274;64300;-73
2022/05/24 06:45:37;;;;;;;3.90;2.60;;;;;;;14.39;64.61;95994.41;107226;1274;68873;-74
2022/05/24 06:48:12;;;;;;;4.90;2.60;;;;;;;14.41;63.86;95997.38;107267;1274;57860;-73
2022/05/24 06:50:44;;;;;;;4.70;2.60;;;;;;;14.41;63.88;95993.55;107383;1273;49894;-73
2022/05/24 06:53:15;;;;;;;3.40;2.70;;;;;;;14.44;63.89;95994.46;107365;1273;31172;-73
2022/05/24 06:55:46;;;;;;;4.60;2.90;;;;;;;14.48;63.95;95997.92;107267;1273;48156;-73
2022/05/24 06:58:18;;;;;;;4.50;3.20;;;;;;;14.53;64.02;96000.71;107398;1273;32292;-73
2022/05/24 07:03:38;;;;;;;2.70;2.20;;;;;;;14.73;64.42;95998.34;106314;1273;1280972;-73
2022/05/24 07:06:12;;;;;;;3.30;2.30;;;;;;;14.89;64.24;96001.73;107277;1274;35212;-73
2022/05/24 07:08:45;;;;;;;4.30;2.80;;;;;;;15.09;63.90;96002.17;107298;1273;45551;-73
2022/05/24 07:11:18;;;;;;;4.90;2.40;;;;;;;15.26;63.91;96002.88;107350;1273;32994;-73
2022/05/24 07:13:50;;;;;;;3.50;2.70;;;;;;;15.39;63.41;96000.20;107403;1273;47235;-73
2022/05/24 07:16:21;;;;;;;2.60;2.40;;;;;;;15.54;62.99;96002.44;107333;1273;44346;-73
2022/05/24 07:18:52;;;;;;;5.50;2.70;;;;;;;15.69;62.15;96001.95;107339;1274;39061;-73
2022/05/24 07:21:23;;;;;;;2.70;2.40;;;;;;;15.76;62.18;96006.20;107344;1273;71771;-73
2022/05/24 07:23:55;;;;;;;4.30;2.60;;;;;;;15.79;61.92;96009.52;107307;1274;75472;-74
2022/05/24 07:26:26;;;;;;;3.80;2.90;;;;;;;15.72;61.74;96010.63;107347;1273;80318;-73
2022/05/24 07:28:57;;;;;;;3.90;2.70;;;;;;;15.65;61.81;96019.21;107327;1273;41996;-74
2022/05/24 07:31:28;;;;;;;5.40;2.60;;;;;;;15.60;61.59;96020.23;107283;1273;57514;-73
2022/05/24 07:34:01;;;;;;;4.30;3.00;;;;;;;15.56;61.82;96018.22;107241;1273;101023;-74
2022/05/24 07:36:32;;;;;;;4.80;3.10;;;;;;;15.52;62.02;96020.20;107305;1274;33734;-74
2022/05/24 07:39:03;;;;;;;4.10;2.90;;;;;;;15.46;62.07;96020.15;107314;1273;73049;-73
2022/05/24 07:47:12;;;;;;;4.70;2.60;;;;;;;15.59;62.34;96013.88;107214;1273;78092;-74
2022/05/24 07:49:43;;;;;;;2.70;2.50;;;;;;;15.69;62.16;96016.77;107314;1273;44165;-73
2022/05/24 07:52:14;;;;;;;4.20;2.70;;;;;;;15.70;61.92;96018.35;107098;1273;275433;-73
2022/05/24 07:54:46;;;;;;;4.20;2.70;;;;;;;15.65;61.84;96018.23;107369;1273;37819;-73
2022/05/24 07:57:17;;;;;;;4.60;3.10;;;;;;;15.59;61.95;96015.07;107346;1273;53723;-73
2022/05/24 07:59:49;;;;;;;3.10;2.80;;;;;;;15.50;62.10;96017.98;106104;1273;1729058;-73
2022/05/24 08:02:22;;;;;;;4.10;2.90;;;;;;;15.42;62.21;96013.36;107275;1273;80660;-73
2022/05/24 08:04:56;;;;;;;3.00;2.60;;;;;;;15.44;62.44;96013.57;107354;1273;69169;-73
2022/05/24 08:07:27;;;;;;;3.20;2.70;;;;;;;15.48;62.69;96011.04;107357;1273;41680;-74
2022/05/24 08:09:58;;;;;;;3.70;2.60;;;;;;;15.52;62.56;96012.53;107266;1273;82976;-74
2022/05/24 08:12:29;;;;;;;4.00;3.10;;;;;;;15.56;62.57;96009.98;107249;1273;65682;-74
2022/05/24 08:15:03;;;;;;;4.70;3.10;;;;;;;15.60;62.57;96007.39;107292;1273;81806;-74
2022/05/24 08:17:34;;;;;;;3.30;2.90;;;;;;;15.66;62.56;96008.48;107315;1273;41346;-73
2022/05/24 08:20:09;;;;;;;5.30;2.90;;;;;;;15.74;62.48;96003.98;107368;1273;29180;-73
2022/05/24 08:22:42;;;;;;;3.90;2.60;;;;;;;15.85;62.08;96009.71;107313;1273;60759;-73
2022/05/24 08:25:14;;;;;;;4.10;2.70;;;;;;;15.98;62.01;96004.14;107307;1273;75405;-73
2022/05/24 08:27:45;;;;;;;5.10;3.10;;;;;;;16.11;61.36;96004.00;107251;1273;71866;-73
2022/05/24 08:30:19;;;;;;;4.40;2.80;;;;;;;16.23;61.19;96004.51;107366;1273;34413;-74
2022/05/24 08:32:50;;;;;;;5.70;3.20;;;;;;;16.34;60.87;96010.95;107260;1273;66102;-73
2022/05/24 08:35:22;;;;;;;4.10;3.20;;;;;;;16.43;59.80;96011.55;107308;1273;81882;-74
2022/05/24 08:37:53;;;;;;;6.20;3.30;;;;;;;16.46;59.60;96011.73;107313;1273;100434;-73
2022/05/24 08:40:25;;;;;;;3.00;2.50;;;;;;;16.48;59.37;96019.38;107308;1275;51915;-74
2022/05/24 08:43:32;;;;;;;5.10;2.90;;;;;;;16.45;58.62;96018.79;107270;1273;132652;-73
2022/05/24 08:49:00;;;;;;;5.00;2.70;;;;;;;16.38;58.75;96021.70;107360;1273;42339;-74
2022/05/24 08:51:33;;;;;;;5.20;2.40;;;;;;;16.36;58.78;96023.17;107292;1273;62826;-73
2022/05/24 08:54:09;;;;;;;4.80;2.40;;;;;;;16.38;58.77;96024.14;107287;1273;100797;-74
2022/05/24 08:56:47;;;;;;;5.10;2.30;;;;;;;16.40;58.61;96021.52;107358;1273;40160;-74
2022/05/24 08:59:25;;;;;;;3.80;2.70;;;;;;;16.44;58.78;96015.87;107158;1274;102365;-74
2022/05/24 09:01:57;;;;;;;4.00;3.00;;;;;;;16.51;58.83;96017.27;107228;1274;97298;-74
2022/05/24 09:04:29;;;;;;;3.80;2.60;;;;;;;16.62;58.84;96017.78;107280;1273;85931;-74
2022/05/24 09:07:06;;;;;;;4.50;2.90;;;;;;;16.72;58.70;96015.20;107110;1273;116321;-74
2022/05/24 09:09:52;;;;;;;7.10;3.10;;;;;;;16.81;58.50;96015.69;107239;1273;89424;-74
2022/05/24 09:12:37;;;;;;;3.10;2.80;;;;;;;16.89;58.12;96014.96;107288;1273;102972;-73
2022/05/24 09:15:17;;;;;;;5.10;2.70;;;;;;;16.96;57.74;96011.51;107265;1274;59320;-74
2022/05/24 09:18:02;;;;;;;4.60;2.60;;;;;;;17.07;57.55;96007.36;107249;1273;89992;-74
2022/05/24 09:20:38;;;;;;;4.50;2.80;;;;;;;17.21;57.21;96007.27;107142;1274;90367;-74
2022/05/24 09:23:25;;;;;;;4.50;3.00;;;;;;;17.31;56.73;96001.92;107337;1273;42962;-74
2022/05/24 09:26:01;;;;;;;4.70;2.70;;;;;;;17.39;56.26;96002.70;107339;1273;63106;-74
2022/05/24 09:28:56;;;;;;;6.80;2.80;;;;;;;17.48;56.63;96000.14;107302;1273;72562;-74
2022/05/24 09:31:33;;;;;;;3.50;2.20;;;;;;;17.59;56.25;95999.84;107213;1273;65019;-75
2022/05/24 09:34:08;;;;;;;2.90;2.60;;;;;;;17.69;56.34;95995.95;107316;1273;120993;-74
2022/05/24 09:36:42;;;;;;;5.10;2.70;;;;;;;17.78;56.04;95998.15;107365;1273;79076;-75
2022/05/24 09:39:26;;;;;;;4.40;3.00;;;;;;;17.90;56.14;96003.55;107187;1274;64065;-74
2022/05/24 09:42:00;;;;;;;4.10;3.00;;;;;;;18.02;55.31;96011.39;107358;1273;34559;-75
2022/05/24 09:44:47;;;;;;;5.20;2.60;;;;;;;18.06;54.88;96013.37;107304;1271;74950;-75
2022/05/24 09:47:28;;;;;;;4.90;2.80;;;;;;;18.12;55.41;96015.20;105746;1273;2129165;-75
2022/05/24 09:50:22;;;;;;;4.20;2.60;;;;;;;18.21;55.26;96017.06;107316;1273;70563;-75
2022/05/24 09:53:17;;;;;;;4.40;2.70;;;;;;;18.37;55.50;96015.89;107321;1273;110385;-74
2022/05/24 09:55:51;;;;;;;4.20;2.70;;;;;;;18.55;55.38;96018.89;107259;1273;72109;-75
2022/05/24 09:58:32;;;;;;;3.60;2.60;;;;;;;18.59;54.91;96019.08;107394;1273;76405;-74
2022/05/24 10:01:07;;;;;;;3.10;2.70;;;;;;;18.65;54.46;96016.28;107267;1273;66750;-75
2022/05/24 10:03:41;;;;;;;3.70;2.60;;;;;;;18.83;54.43;96016.90;107381;1273;32158;-75
2022/05/24 10:06:22;;;;;;;6.40;2.30;;;;;;;19.08;54.48;96012.59;107258;1273;104388;-74
2022/05/24 10:08:58;;;;;;;5.10;2.90;;;;;;;19.42;53.91;96016.94;107428;1273;45638;-74
2022/05/24 10:11:40;;;;;;;4.60;2.80;;;;;;;19.69;53.20;96011.10;107202;1274;49010;-74
2022/05/24 10:14:26;;;;;;;3.70;2.40;;;;;;;19.86;52.05;96013.39;107188;1273;112634;-74
2022/05/24 10:17:02;;;;;;;5.20;2.40;;;;;;;19.96;52.02;96009.38;107246;1274;38481;-75
2022/05/24 10:19:56;;;;;;;4.60;2.90;;;;;;;20.11;51.75;96011.23;107239;1273;77393;-74
2022/05/24 10:22:41;;;;;;;5.20;3.30;;;;;;;20.34;51.79;96011.15;107343;1273;121143;-75
2022/05/24 10:25:21;;;;;;;5.10;2.80;;;;;;;20.63;51.15;96016.10;107362;1273;33732;-74
2022/05/24 10:28:14;;;;;;;3.40;2.30;;;;;;;20.74;50.21;96017.45;107312;1273;54738;-74
2022/05/24 10:30:56;;;;;;;3.90;2.50;;;;;;;20.73;49.39;96016.44;107292;1273;52801;-74
2022/05/24 10:39:37;;;;;;;4.50;2.40;;;;;;;20.72;49.19;96023.11;107474;1273;36768;-74
2022/05/24 10:42:16;;;;;;;3.70;2.50;;;;;;;20.84;48.63;96017.55;107364;1273;37493;-74
2022/05/24 10:44:52;;;;;;;4.60;2.40;;;;;;;21.00;49.10;96020.52;107309;1273;58671;-74
2022/05/24 10:47:31;;;;;;;2.90;2.20;;;;;;;21.16;48.89;96021.92;107445;1273;39755;-74
2022/05/24 10:50:07;;;;;;;6.50;2.50;;;;;;;21.18;48.20;96020.75;107350;1273;45976;-75
2022/05/24 10:52:44;;;;;;;4.40;2.60;;;;;;;21.13;47.77;96018.73;107153;1273;115417;-74
2022/05/24 10:55:19;;;;;;;5.00;2.40;;;;;;;20.99;47.58;96021.58;107327;1273;43549;-75
2022/05/24 10:57:56;;;;;;;6.60;2.70;;;;;;;20.97;47.62;96021.63;107276;1273;61471;-75
2022/05/24 11:00:33;;;;;;;3.10;2.30;;;;;;;21.00;47.66;96025.92;107414;1273;49800;-75
2022/05/24 11:03:17;;;;;;;4.40;2.50;;;;;;;20.91;47.08;96027.52;107186;1273;121036;-75
2022/05/24 11:05:51;;;;;;;4.10;2.50;;;;;;;20.71;47.59;96026.34;107251;1273;102649;-74
2022/05/24 11:08:38;;;;;;;5.10;2.80;;;;;;;20.63;47.45;96022.65;107427;1273;36164;-74
2022/05/24 11:11:24;;;;;;;3.60;2.50;;;;;;;20.55;47.47;96020.73;107246;1273;103273;-74
2022/05/24 11:14:00;;;;;;;4.80;2.70;;;;;;;20.49;48.22;96017.23;107330;1274;52558;-74
2022/05/24 11:16:37;;;;;;;3.60;2.50;;;;;;;20.42;48.07;96016.23;107191;1274;76206;-75
2022/05/24 11:19:14;;;;;;;4.10;2.80;;;;;;;20.34;48.50;96015.52;107319;1273;92032;-74
2022/05/24 11:21:52;;;;;;;5.30;2.70;;;;;;;20.36;48.64;96015.80;107347;1273;50554;-74
2022/05/24 11:24:38;;;;;;;6.10;2.70;;;;;;;20.20;48.96;96019.39;107346;1273;74577;-74
2022/05/24 11:27:12;;;;;;;6.40;2.90;;;;;;;20.26;49.89;96016.75;107347;1273;50793;-75
2022/05/24 11:29:51;;;;;;;4.50;3.10;;;;;;;20.38;49.60;96015.06;107125;1273;93425;-74
2022/05/24 11:32:37;;;;;;;6.10;2.70;;;;;;;20.50;49.09;96009.45;107343;1273;33824;-74
2022/05/24 11:35:13;;;;;;;5.00;2.80;;;;;;;20.47;48.37;96007.96;107247;1273;97849;-74
2022/05/24 11:37:46;;;;;;;3.60;2.60;;;;;;;20.44;48.66;96008.67;105866;1274;1680688;-75
2022/05/24 11:40:37;;;;;;;4.60;3.20;;;;;;;20.41;48.26;96010.20;107242;1274;57064;-74
2022/05/24 11:43:12;;;;;;;4.00;2.50;;;;;;;20.37;48.15;96007.34;107261;1273;112517;-74
2022/05/24 11:46:00;;;;;;;3.60;2.60;;;;;;;20.36;47.84;96005.86;107239;1274;73862;-74
2022/05/24 11:48:55;;;;;;;3.80;2.50;;;;;;;20.55;47.99;96007.95;107266;1273;81014;-74
2022/05/24 11:51:40;;;;;;;3.50;2.80;;;;;;;20.93;48.23;96004.31;107314;1273;63729;-74
2022/05/24 11:54:49;;;;;;;5.10;2.40;;;;;;;21.35;47.82;95995.92;107413;1273;30484;-74
2022/05/24 11:57:40;;;;;;;5.60;2.70;;;;;;;21.81;46.91;95996.96;107371;1273;36970;-74
2022/05/24 12:00:13;;;;;;;4.00;2.60;;;;;;;21.78;45.90;95991.36;107248;1273;65775;-74
2022/05/24 12:08:41;;;;;;;4.50;2.70;;;;;;;21.84;45.74;95989.30;107249;1273;107764;-74
2022/05/24 12:11:32;;;;;;;5.30;2.80;;;;;;;21.87;45.82;95988.18;107250;1274;33068;-74
2022/05/24 12:14:35;;;;;;;4.60;2.70;;;;;;;21.89;45.89;95988.66;107320;1273;48645;-75
2022/05/24 12:17:26;;;;;;;4.30;2.50;;;;;;;21.88;45.68;95987.57;107236;1273;79088;-75
2022/05/24 12:19:58;;;;;;;4.00;2.80;;;;;;;21.94;45.69;95990.65;107439;1273;32807;-75
2022/05/24 12:22:32;;;;;;;6.50;2.40;;;;;;;22.10;45.95;95985.94;107294;1273;93618;-74
2022/05/24 12:25:06;;;;;;;3.80;2.60;;;;;;;22.20;45.20;95986.06;107181;1273;109337;-74
2022/05/24 12:27:57;;;;;;;5.50;2.50;;;;;;;22.04;45.08;95984.54;107178;1275;71639;-74
2022/05/24 12:30:49;;;;;;;5.60;2.40;;;;;;;21.90;44.66;95985.90;107193;1273;125728;-75
2022/05/24 12:33:45;;;;;;;4.10;2.60;;;;;;;22.16;45.50;95984.69;107330;1275;43841;-74
2022/05/24 12:36:45;;;;;;;5.30;2.40;;;;;;;22.39;45.30;95984.80;107211;1274;56436;-74
2022/05/24 12:39:21;;;;;;;4.80;2.80;;;;;;;22.23;45.04;95985.71;107370;1273;81774;-75
2022/05/24 12:41:56;;;;;;;6.00;2.40;;;;;;;22.01;45.20;95980.41;107460;1273;35982;-74